Aviation Digital Data Service (ADDS)

Output produced by METARs form (0501 UTC 20 October 2018)
found at http://www.aviationweather.gov/metar/data/
 
NSFA 200400Z 12006KT 9999 FEW020 SCT045 BKN120 28/23 Q1010
NSFA 200200Z 12009KT 999 FEW020 SCT044 PKN120 28/22 Q1010 RMK DISTANCE SHOWERS TO WEST
TAF NSFA 192320Z 2000/2024 12008KT 9999 -SHRA SCT018 BKN040 
     PROB40 
     TEMPO 2000/2018 3000 TSRA BKN015 FEW018CB 
     PROB30 
     TEMPO 2018/2024 5000 TSRA FEW017CB